sensor_id;sensor_type;location;lat;lon;timestamp;P1;durP1;ratioP1;P2;durP2;ratioP2
62010;SDS011;47967;51.756;10.174;2023-02-20T05:01:54;7.30;;;4.03;;
62010;SDS011;47967;51.756;10.174;2023-02-20T05:05:57;14.65;;;4.57;;
62010;SDS011;47967;51.756;10.174;2023-02-20T05:09:59;8.30;;;4.30;;
62010;SDS011;47967;51.756;10.174;2023-02-20T05:14:02;7.83;;;4.00;;
62010;SDS011;47967;51.756;10.174;2023-02-20T05:18:06;11.67;;;4.07;;
62010;SDS011;47967;51.756;10.174;2023-02-20T05:22:08;7.88;;;4.22;;
62010;SDS011;47967;51.756;10.174;2023-02-20T05:26:21;7.03;;;4.10;;
62010;SDS011;47967;51.756;10.174;2023-02-20T05:30:24;7.30;;;4.53;;
62010;SDS011;47967;51.756;10.174;2023-02-20T05:34:28;8.47;;;4.20;;
62010;SDS011;47967;51.756;10.174;2023-02-20T05:38:30;7.15;;;3.90;;
62010;SDS011;47967;51.756;10.174;2023-02-20T05:42:33;9.75;;;4.30;;
62010;SDS011;47967;51.756;10.174;2023-02-20T05:46:38;7.53;;;4.28;;
62010;SDS011;47967;51.756;10.174;2023-02-20T05:50:43;7.13;;;4.07;;
62010;SDS011;47967;51.756;10.174;2023-02-20T05:54:50;7.50;;;4.47;;
62010;SDS011;47967;51.756;10.174;2023-02-20T05:58:53;9.73;;;4.90;;
62010;SDS011;47967;51.756;10.174;2023-02-20T06:02:55;11.18;;;4.28;;
62010;SDS011;47967;51.756;10.174;2023-02-20T06:06:59;7.40;;;3.93;;
62010;SDS011;47967;51.756;10.174;2023-02-20T06:11:02;8.90;;;4.30;;
62010;SDS011;47967;51.756;10.174;2023-02-20T06:15:05;7.43;;;4.22;;
62010;SDS011;47967;51.756;10.174;2023-02-20T06:19:07;9.63;;;4.47;;
62010;SDS011;47967;51.756;10.174;2023-02-20T06:23:11;8.23;;;4.47;;
62010;SDS011;47967;51.756;10.174;2023-02-20T06:27:15;7.55;;;4.20;;
62010;SDS011;47967;51.756;10.174;2023-02-20T06:31:22;9.63;;;4.45;;
62010;SDS011;47967;51.756;10.174;2023-02-20T06:35:26;8.30;;;4.80;;
62010;SDS011;47967;51.756;10.174;2023-02-20T06:39:30;8.43;;;4.77;;
62010;SDS011;47967;51.756;10.174;2023-02-20T06:43:34;9.25;;;5.30;;
62010;SDS011;47967;51.756;10.174;2023-02-20T06:47:36;10.70;;;4.95;;
62010;SDS011;47967;51.756;10.174;2023-02-20T06:51:39;8.30;;;4.63;;
62010;SDS011;47967;51.756;10.174;2023-02-20T06:55:43;11.93;;;6.28;;
62010;SDS011;47967;51.756;10.174;2023-02-20T06:59:45;9.90;;;5.28;;
62010;SDS011;47967;51.756;10.174;2023-02-20T07:03:49;9.02;;;5.18;;
62010;SDS011;47967;51.756;10.174;2023-02-20T07:07:53;9.48;;;5.43;;
62010;SDS011;47967;51.756;10.174;2023-02-20T07:11:57;11.13;;;6.13;;
62010;SDS011;47967;51.756;10.174;2023-02-20T07:16:00;11.10;;;6.22;;
62010;SDS011;47967;51.756;10.174;2023-02-20T07:20:03;12.37;;;5.60;;
62010;SDS011;47967;51.756;10.174;2023-02-20T07:24:06;12.52;;;5.95;;
62010;SDS011;47967;51.756;10.174;2023-02-20T07:28:10;11.35;;;5.53;;
62010;SDS011;47967;51.756;10.174;2023-02-20T07:32:13;12.68;;;6.50;;
62010;SDS011;47967;51.756;10.174;2023-02-20T07:36:20;11.55;;;6.43;;
62010;SDS011;47967;51.756;10.174;2023-02-20T07:40:23;11.33;;;6.00;;
62010;SDS011;47967;51.756;10.174;2023-02-20T07:44:26;12.45;;;6.60;;
62010;SDS011;47967;51.756;10.174;2023-02-20T07:48:29;14.10;;;7.50;;
62010;SDS011;47967;51.756;10.174;2023-02-20T07:52:32;12.27;;;6.80;;
62010;SDS011;47967;51.756;10.174;2023-02-20T07:56:34;12.23;;;6.90;;
62010;SDS011;47967;51.756;10.174;2023-02-20T08:00:38;13.53;;;7.07;;
62010;SDS011;47967;51.756;10.174;2023-02-20T08:04:41;14.50;;;7.40;;
62010;SDS011;47967;51.756;10.174;2023-02-20T08:08:45;12.85;;;7.18;;
62010;SDS011;47967;51.756;10.174;2023-02-20T08:12:49;14.40;;;7.72;;
62010;SDS011;47967;51.756;10.174;2023-02-20T08:16:54;14.38;;;6.78;;
62010;SDS011;47967;51.756;10.174;2023-02-20T08:20:57;11.23;;;6.65;;
62010;SDS011;47967;51.756;10.174;2023-02-20T08:24:59;11.48;;;6.57;;
62010;SDS011;47967;51.756;10.174;2023-02-20T08:29:04;13.25;;;7.55;;
62010;SDS011;47967;51.756;10.174;2023-02-20T08:33:07;13.65;;;7.32;;
62010;SDS011;47967;51.756;10.174;2023-02-20T08:37:10;12.68;;;6.45;;
62010;SDS011;47967;51.756;10.174;2023-02-20T08:41:12;14.05;;;7.10;;
62010;SDS011;47967;51.756;10.174;2023-02-20T08:45:15;12.70;;;6.83;;
62010;SDS011;47967;51.756;10.174;2023-02-20T08:49:19;11.05;;;5.68;;
62010;SDS011;47967;51.756;10.174;2023-02-20T08:53:24;11.80;;;5.97;;
62010;SDS011;47967;51.756;10.174;2023-02-20T08:57:27;10.20;;;5.90;;
62010;SDS011;47967;51.756;10.174;2023-02-20T09:01:30;10.60;;;5.28;;
62010;SDS011;47967;51.756;10.174;2023-02-20T09:05:34;8.80;;;5.23;;
62010;SDS011;47967;51.756;10.174;2023-02-20T09:09:39;9.60;;;5.20;;
62010;SDS011;47967;51.756;10.174;2023-02-20T09:13:42;12.45;;;6.45;;
62010;SDS011;47967;51.756;10.174;2023-02-20T09:21:50;10.15;;;4.88;;
62010;SDS011;47967;51.756;10.174;2023-02-20T09:25:53;10.52;;;4.72;;
62010;SDS011;47967;51.756;10.174;2023-02-20T09:29:56;8.60;;;4.50;;
62010;SDS011;47967;51.756;10.174;2023-02-20T09:33:58;5.45;;;3.47;;
62010;SDS011;47967;51.756;10.174;2023-02-20T09:38:02;7.20;;;3.45;;
62010;SDS011;47967;51.756;10.174;2023-02-20T09:42:11;5.53;;;3.22;;
62010;SDS011;47967;51.756;10.174;2023-02-20T09:46:22;6.28;;;3.17;;
62010;SDS011;47967;51.756;10.174;2023-02-20T09:54:35;5.63;;;2.65;;
62010;SDS011;47967;51.756;10.174;2023-02-20T09:58:41;6.00;;;2.60;;
62010;SDS011;47967;51.756;10.174;2023-02-20T10:02:51;4.72;;;2.60;;
62010;SDS011;47967;51.756;10.174;2023-02-20T10:06:59;4.53;;;2.50;;
62010;SDS011;47967;51.756;10.174;2023-02-20T10:11:16;6.03;;;2.80;;
62010;SDS011;47967;51.756;10.174;2023-02-20T10:15:29;5.13;;;2.80;;
62010;SDS011;47967;51.756;10.174;2023-02-20T10:19:38;5.00;;;2.50;;
62010;SDS011;47967;51.756;10.174;2023-02-20T10:23:53;4.90;;;2.33;;
62010;SDS011;47967;51.756;10.174;2023-02-20T10:28:08;3.92;;;2.17;;
62010;SDS011;47967;51.756;10.174;2023-02-20T10:32:15;3.92;;;2.40;;
62010;SDS011;47967;51.756;10.174;2023-02-20T10:36:22;3.13;;;2.20;;
62010;SDS011;47967;51.756;10.174;2023-02-20T10:40:30;4.45;;;2.33;;
62010;SDS011;47967;51.756;10.174;2023-02-20T10:44:40;2.78;;;2.05;;
62010;SDS011;47967;51.756;10.174;2023-02-20T10:48:53;4.03;;;2.00;;
62010;SDS011;47967;51.756;10.174;2023-02-20T10:53:03;4.60;;;2.38;;
62010;SDS011;47967;51.756;10.174;2023-02-20T10:57:17;4.28;;;2.15;;
62010;SDS011;47967;51.756;10.174;2023-02-20T11:01:25;5.68;;;2.10;;
62010;SDS011;47967;51.756;10.174;2023-02-20T11:05:30;3.55;;;2.42;;
62010;SDS011;47967;51.756;10.174;2023-02-20T11:09:38;8.85;;;2.70;;
62010;SDS011;47967;51.756;10.174;2023-02-20T11:13:41;7.32;;;2.30;;
62010;SDS011;47967;51.756;10.174;2023-02-20T11:17:45;4.87;;;2.73;;
62010;SDS011;47967;51.756;10.174;2023-02-20T11:21:51;4.28;;;2.00;;
62010;SDS011;47967;51.756;10.174;2023-02-20T11:25:53;2.77;;;2.00;;
62010;SDS011;47967;51.756;10.174;2023-02-20T11:29:59;4.18;;;2.22;;
62010;SDS011;47967;51.756;10.174;2023-02-20T11:34:05;4.43;;;2.10;;
62010;SDS011;47967;51.756;10.174;2023-02-20T11:38:25;3.70;;;2.05;;
62010;SDS011;47967;51.756;10.174;2023-02-20T11:42:31;4.10;;;2.00;;
62010;SDS011;47967;51.756;10.174;2023-02-20T11:46:36;5.45;;;2.00;;
62010;SDS011;47967;51.756;10.174;2023-02-20T11:50:41;4.78;;;2.00;;
62010;SDS011;47967;51.756;10.174;2023-02-20T11:54:44;3.75;;;2.00;;
62010;SDS011;47967;51.756;10.174;2023-02-20T12:02:52;4.15;;;1.85;;
62010;SDS011;47967;51.756;10.174;2023-02-20T12:06:57;2.53;;;2.10;;
62010;SDS011;47967;51.756;10.174;2023-02-20T12:11:00;2.22;;;1.75;;
62010;SDS011;47967;51.756;10.174;2023-02-20T12:15:11;4.22;;;2.00;;
62010;SDS011;47967;51.756;10.174;2023-02-20T12:19:15;3.33;;;1.92;;
62010;SDS011;47967;51.756;10.174;2023-02-20T12:23:25;4.05;;;1.98;;
62010;SDS011;47967;51.756;10.174;2023-02-20T12:27:43;3.50;;;2.30;;
62010;SDS011;47967;51.756;10.174;2023-02-20T12:31:58;7.30;;;2.10;;
62010;SDS011;47967;51.756;10.174;2023-02-20T12:36:14;2.63;;;2.08;;
62010;SDS011;47967;51.756;10.174;2023-02-20T12:40:30;5.38;;;2.42;;
62010;SDS011;47967;51.756;10.174;2023-02-20T12:44:45;5.38;;;2.35;;
62010;SDS011;47967;51.756;10.174;2023-02-20T12:49:04;3.10;;;2.00;;
62010;SDS011;47967;51.756;10.174;2023-02-20T12:53:27;6.85;;;2.60;;
62010;SDS011;47967;51.756;10.174;2023-02-20T12:57:43;5.75;;;2.75;;
62010;SDS011;47967;51.756;10.174;2023-02-20T13:01:51;5.32;;;2.50;;
62010;SDS011;47967;51.756;10.174;2023-02-20T13:05:55;7.32;;;3.17;;
62010;SDS011;47967;51.756;10.174;2023-02-20T13:10:00;4.50;;;2.78;;
62010;SDS011;47967;51.756;10.174;2023-02-20T13:14:14;4.38;;;3.08;;
62010;SDS011;47967;51.756;10.174;2023-02-20T13:18:28;4.72;;;2.85;;
62010;SDS011;47967;51.756;10.174;2023-02-20T13:22:38;4.53;;;2.95;;
62010;SDS011;47967;51.756;10.174;2023-02-20T13:26:46;4.90;;;2.80;;
62010;SDS011;47967;51.756;10.174;2023-02-20T13:31:07;8.35;;;2.75;;
62010;SDS011;47967;51.756;10.174;2023-02-20T13:39:37;6.15;;;3.15;;
62010;SDS011;47967;51.756;10.174;2023-02-20T13:43:41;5.82;;;3.33;;
62010;SDS011;47967;51.756;10.174;2023-02-20T13:47:45;4.70;;;2.85;;
62010;SDS011;47967;51.756;10.174;2023-02-20T13:51:48;7.97;;;3.40;;
62010;SDS011;47967;51.756;10.174;2023-02-20T13:55:51;5.43;;;3.10;;
62010;SDS011;47967;51.756;10.174;2023-02-20T13:59:53;6.63;;;3.33;;
62010;SDS011;47967;51.756;10.174;2023-02-20T14:04:01;6.80;;;4.03;;
62010;SDS011;47967;51.756;10.174;2023-02-20T14:08:05;10.50;;;4.70;;
62010;SDS011;47967;51.756;10.174;2023-02-20T14:12:11;8.27;;;4.50;;
62010;SDS011;47967;51.756;10.174;2023-02-20T14:16:22;10.50;;;5.38;;
62010;SDS011;47967;51.756;10.174;2023-02-20T14:20:33;10.65;;;5.28;;
62010;SDS011;47967;51.756;10.174;2023-02-20T14:24:37;11.65;;;5.70;;
62010;SDS011;47967;51.756;10.174;2023-02-20T14:28:56;9.63;;;5.25;;
62010;SDS011;47967;51.756;10.174;2023-02-20T14:32:59;12.57;;;6.65;;
62010;SDS011;47967;51.756;10.174;2023-02-20T14:37:04;13.00;;;6.10;;
62010;SDS011;47967;51.756;10.174;2023-02-20T14:41:16;12.32;;;6.50;;
62010;SDS011;47967;51.756;10.174;2023-02-20T14:45:22;12.77;;;6.97;;
62010;SDS011;47967;51.756;10.174;2023-02-20T14:49:27;13.18;;;6.38;;
62010;SDS011;47967;51.756;10.174;2023-02-20T14:53:31;12.02;;;6.50;;
62010;SDS011;47967;51.756;10.174;2023-02-20T14:57:34;14.27;;;5.93;;
62010;SDS011;47967;51.756;10.174;2023-02-20T15:01:38;10.90;;;6.33;;
62010;SDS011;47967;51.756;10.174;2023-02-20T15:05:41;14.32;;;5.82;;
62010;SDS011;47967;51.756;10.174;2023-02-20T15:09:45;14.18;;;6.20;;
62010;SDS011;47967;51.756;10.174;2023-02-20T15:13:49;12.73;;;6.22;;
62010;SDS011;47967;51.756;10.174;2023-02-20T15:18:05;11.10;;;5.70;;
62010;SDS011;47967;51.756;10.174;2023-02-20T15:22:20;11.38;;;5.47;;
62010;SDS011;47967;51.756;10.174;2023-02-20T15:26:25;10.80;;;5.43;;
62010;SDS011;47967;51.756;10.174;2023-02-20T15:34:33;11.38;;;5.65;;
62010;SDS011;47967;51.756;10.174;2023-02-20T15:38:36;11.25;;;5.43;;
62010;SDS011;47967;51.756;10.174;2023-02-20T15:42:39;11.77;;;5.30;;
62010;SDS011;47967;51.756;10.174;2023-02-20T15:46:41;10.77;;;5.40;;
62010;SDS011;47967;51.756;10.174;2023-02-20T15:50:45;10.83;;;5.47;;
62010;SDS011;47967;51.756;10.174;2023-02-20T15:54:50;10.35;;;5.28;;
62010;SDS011;47967;51.756;10.174;2023-02-20T15:58:55;10.65;;;4.78;;
62010;SDS011;47967;51.756;10.174;2023-02-20T16:03:00;11.90;;;5.68;;
62010;SDS011;47967;51.756;10.174;2023-02-20T16:07:04;10.98;;;5.30;;
62010;SDS011;47967;51.756;10.174;2023-02-20T16:11:07;11.77;;;6.40;;
62010;SDS011;47967;51.756;10.174;2023-02-20T16:15:10;13.20;;;6.18;;
62010;SDS011;47967;51.756;10.174;2023-02-20T16:19:18;14.40;;;6.38;;
62010;SDS011;47967;51.756;10.174;2023-02-20T16:23:35;13.77;;;5.95;;
62010;SDS011;47967;51.756;10.174;2023-02-20T16:27:39;11.00;;;6.15;;
62010;SDS011;47967;51.756;10.174;2023-02-20T16:40:26;11.98;;;6.25;;
62010;SDS011;47967;51.756;10.174;2023-02-20T16:44:30;10.18;;;5.75;;
62010;SDS011;47967;51.756;10.174;2023-02-20T16:48:37;10.55;;;5.85;;
62010;SDS011;47967;51.756;10.174;2023-02-20T16:52:43;11.48;;;5.50;;
62010;SDS011;47967;51.756;10.174;2023-02-20T16:56:47;12.68;;;6.55;;
62010;SDS011;47967;51.756;10.174;2023-02-20T17:00:49;12.25;;;5.97;;
62010;SDS011;47967;51.756;10.174;2023-02-20T17:04:58;11.88;;;6.65;;
62010;SDS011;47967;51.756;10.174;2023-02-20T17:09:01;10.82;;;6.07;;
62010;SDS011;47967;51.756;10.174;2023-02-20T17:13:05;14.57;;;6.27;;
62010;SDS011;47967;51.756;10.174;2023-02-20T17:17:08;10.32;;;5.82;;
62010;SDS011;47967;51.756;10.174;2023-02-20T17:21:10;12.30;;;6.20;;
62010;SDS011;47967;51.756;10.174;2023-02-20T17:25:14;14.38;;;6.85;;
62010;SDS011;47967;51.756;10.174;2023-02-20T17:29:19;12.77;;;6.65;;
62010;SDS011;47967;51.756;10.174;2023-02-20T17:33:22;11.73;;;6.32;;
62010;SDS011;47967;51.756;10.174;2023-02-20T17:37:26;11.57;;;6.22;;
62010;SDS011;47967;51.756;10.174;2023-02-20T17:41:30;12.45;;;6.55;;
62010;SDS011;47967;51.756;10.174;2023-02-20T17:45:34;10.55;;;5.78;;
62010;SDS011;47967;51.756;10.174;2023-02-20T17:49:37;14.60;;;6.70;;
62010;SDS011;47967;51.756;10.174;2023-02-20T17:53:41;14.43;;;6.88;;
62010;SDS011;47967;51.756;10.174;2023-02-20T17:57:44;11.90;;;6.00;;
62010;SDS011;47967;51.756;10.174;2023-02-20T18:01:48;11.77;;;6.13;;
62010;SDS011;47967;51.756;10.174;2023-02-20T18:05:51;14.95;;;6.95;;
62010;SDS011;47967;51.756;10.174;2023-02-20T18:09:55;15.40;;;7.28;;
62010;SDS011;47967;51.756;10.174;2023-02-20T18:13:58;13.52;;;6.65;;
62010;SDS011;47967;51.756;10.174;2023-02-20T18:18:02;13.77;;;6.68;;
62010;SDS011;47967;51.756;10.174;2023-02-20T18:22:06;14.68;;;6.63;;
62010;SDS011;47967;51.756;10.174;2023-02-20T18:26:08;11.10;;;6.33;;
62010;SDS011;47967;51.756;10.174;2023-02-20T18:30:11;14.82;;;7.38;;
62010;SDS011;47967;51.756;10.174;2023-02-20T18:34:16;11.60;;;6.30;;
62010;SDS011;47967;51.756;10.174;2023-02-20T18:38:19;13.20;;;6.78;;
62010;SDS011;47967;51.756;10.174;2023-02-20T18:42:21;11.27;;;6.33;;
62010;SDS011;47967;51.756;10.174;2023-02-20T18:46:24;10.87;;;5.83;;
62010;SDS011;47967;51.756;10.174;2023-02-20T18:50:29;10.25;;;5.55;;
62010;SDS011;47967;51.756;10.174;2023-02-20T18:54:32;14.18;;;6.43;;
62010;SDS011;47967;51.756;10.174;2023-02-20T18:58:34;11.70;;;5.80;;
62010;SDS011;47967;51.756;10.174;2023-02-20T19:02:37;14.57;;;6.67;;
62010;SDS011;47967;51.756;10.174;2023-02-20T19:06:41;12.23;;;6.20;;
62010;SDS011;47967;51.756;10.174;2023-02-20T19:10:45;11.27;;;5.72;;
62010;SDS011;47967;51.756;10.174;2023-02-20T19:14:47;12.82;;;6.93;;
62010;SDS011;47967;51.756;10.174;2023-02-20T19:18:50;10.53;;;5.93;;
62010;SDS011;47967;51.756;10.174;2023-02-20T19:22:54;11.77;;;5.90;;
62010;SDS011;47967;51.756;10.174;2023-02-20T19:26:57;12.43;;;5.63;;
62010;SDS011;47967;51.756;10.174;2023-02-20T19:30:59;10.23;;;5.35;;
62010;SDS011;47967;51.756;10.174;2023-02-20T19:35:02;10.30;;;5.77;;
62010;SDS011;47967;51.756;10.174;2023-02-20T19:39:06;11.73;;;6.40;;
62010;SDS011;47967;51.756;10.174;2023-02-20T19:43:10;11.57;;;5.28;;
62010;SDS011;47967;51.756;10.174;2023-02-20T19:47:12;14.33;;;5.37;;
62010;SDS011;47967;51.756;10.174;2023-02-20T19:51:18;12.15;;;5.68;;
62010;SDS011;47967;51.756;10.174;2023-02-20T19:55:23;11.85;;;5.90;;
62010;SDS011;47967;51.756;10.174;2023-02-20T19:59:26;10.52;;;5.32;;
62010;SDS011;47967;51.756;10.174;2023-02-20T20:03:30;11.20;;;5.38;;
62010;SDS011;47967;51.756;10.174;2023-02-20T20:07:32;10.23;;;5.68;;
62010;SDS011;47967;51.756;10.174;2023-02-20T20:11:36;9.47;;;4.90;;
62010;SDS011;47967;51.756;10.174;2023-02-20T20:15:39;8.80;;;4.70;;
62010;SDS011;47967;51.756;10.174;2023-02-20T20:19:41;9.93;;;5.47;;
62010;SDS011;47967;51.756;10.174;2023-02-20T20:23:58;10.15;;;5.25;;
62010;SDS011;47967;51.756;10.174;2023-02-20T20:28:02;13.17;;;5.00;;
62010;SDS011;47967;51.756;10.174;2023-02-20T20:32:07;13.20;;;5.75;;
62010;SDS011;47967;51.756;10.174;2023-02-20T20:36:10;10.93;;;5.60;;
62010;SDS011;47967;51.756;10.174;2023-02-20T20:40:13;11.30;;;5.77;;
62010;SDS011;47967;51.756;10.174;2023-02-20T20:44:18;12.80;;;5.80;;
62010;SDS011;47967;51.756;10.174;2023-02-20T20:48:23;11.05;;;5.82;;
62010;SDS011;47967;51.756;10.174;2023-02-20T20:52:26;10.13;;;5.72;;
62010;SDS011;47967;51.756;10.174;2023-02-20T20:56:31;12.73;;;6.22;;
62010;SDS011;47967;51.756;10.174;2023-02-20T21:00:34;12.55;;;5.97;;
62010;SDS011;47967;51.756;10.174;2023-02-20T21:04:37;11.57;;;6.43;;
62010;SDS011;47967;51.756;10.174;2023-02-20T21:08:42;11.82;;;6.70;;
62010;SDS011;47967;51.756;10.174;2023-02-20T21:12:44;11.25;;;6.07;;
62010;SDS011;47967;51.756;10.174;2023-02-20T21:16:48;16.27;;;7.38;;
62010;SDS011;47967;51.756;10.174;2023-02-20T21:20:51;13.25;;;7.07;;
62010;SDS011;47967;51.756;10.174;2023-02-20T21:24:53;13.52;;;7.53;;
62010;SDS011;47967;51.756;10.174;2023-02-20T21:28:56;15.23;;;8.20;;
62010;SDS011;47967;51.756;10.174;2023-02-20T21:33:00;14.23;;;7.90;;
62010;SDS011;47967;51.756;10.174;2023-02-20T21:37:02;15.30;;;7.80;;
62010;SDS011;47967;51.756;10.174;2023-02-20T21:41:05;16.20;;;8.37;;
62010;SDS011;47967;51.756;10.174;2023-02-20T21:45:08;16.00;;;7.57;;
62010;SDS011;47967;51.756;10.174;2023-02-20T21:49:11;17.63;;;8.88;;
62010;SDS011;47967;51.756;10.174;2023-02-20T21:53:13;17.95;;;8.55;;
62010;SDS011;47967;51.756;10.174;2023-02-20T21:57:16;16.73;;;7.90;;
